Time;durP1;ratioP1;P1;durP2;ratioP2;P2;SDS_P1;SDS_P2;PMS_P1;PMS_P2;Temp;Humidity;BMP_temperature;BMP_pressure;BME280_temperature;BME280_humidity;BME280_pressure;Samples;Min_cycle;Max_cycle;Signal;HPM_P1;HPM_P2
2023/08/13 00:02:09;;;;;;;10.13;2.92;;;20.00;99.90;;;;;;5013691;28;20026;-77
2023/08/13 00:04:35;;;;;;;11.07;3.13;;;20.00;99.90;;;;;;5015743;28;20037;-77
2023/08/13 00:07:01;;;;;;;16.05;3.72;;;20.10;99.90;;;;;;5015263;28;20482;-77
2023/08/13 00:09:26;;;;;;;11.85;3.00;;;20.00;99.90;;;;;;5015322;28;20112;-77
2023/08/13 00:11:53;;;;;;;10.80;3.28;;;20.00;99.90;;;;;;5014172;28;20049;-77
2023/08/13 00:14:19;;;;;;;16.40;3.90;;;20.00;99.90;;;;;;5018147;28;20017;-77
2023/08/13 00:16:45;;;;;;;14.15;3.83;;;20.00;99.90;;;;;;5035006;28;20029;-77
2023/08/13 00:19:11;;;;;;;11.50;3.28;;;19.90;99.90;;;;;;5034940;28;20032;-77
2023/08/13 00:21:36;;;;;;;13.30;3.63;;;19.90;99.90;;;;;;5023839;28;20104;-76
2023/08/13 00:24:03;;;;;;;8.85;3.10;;;19.80;99.90;;;;;;5035094;28;20025;-77
2023/08/13 00:26:28;;;;;;;11.35;2.95;;;19.80;99.90;;;;;;5034922;28;20025;-77
2023/08/13 00:28:54;;;;;;;8.93;3.35;;;19.80;99.90;;;;;;5034748;28;20025;-77
2023/08/13 00:31:20;;;;;;;10.82;4.00;;;19.80;99.90;;;;;;5034873;28;20030;-77
2023/08/13 00:33:45;;;;;;;9.38;3.00;;;19.80;99.90;;;;;;5034868;28;20029;-77
2023/08/13 00:36:11;;;;;;;16.45;3.45;;;19.80;99.90;;;;;;5034559;28;20030;-77
2023/08/13 00:38:37;;;;;;;15.32;3.42;;;19.80;99.90;;;;;;5033365;28;20021;-76
2023/08/13 00:41:02;;;;;;;12.15;3.13;;;19.80;99.90;;;;;;5035268;28;20425;-77
2023/08/13 00:43:28;;;;;;;7.93;3.40;;;19.70;99.90;;;;;;5034870;28;20478;-76
2023/08/13 00:45:54;;;;;;;13.02;3.20;;;19.70;99.90;;;;;;5034621;28;20096;-77
2023/08/13 00:48:21;;;;;;;11.68;3.30;;;19.60;99.90;;;;;;5034578;28;20034;-77
2023/08/13 00:50:47;;;;;;;9.60;3.42;;;19.60;99.90;;;;;;5031843;28;20520;-77
2023/08/13 00:53:13;;;;;;;14.18;2.92;;;19.60;99.90;;;;;;5034777;28;20057;-77
2023/08/13 00:55:39;;;;;;;13.13;3.42;;;19.60;99.90;;;;;;5034359;28;20524;-76
2023/08/13 00:58:05;;;;;;;10.45;3.50;;;19.60;99.90;;;;;;5034179;28;20025;-77
2023/08/13 01:00:31;;;;;;;15.07;3.72;;;19.60;99.90;;;;;;5034353;28;20029;-77
2023/08/13 01:02:58;;;;;;;14.15;3.60;;;19.50;99.90;;;;;;5049889;28;20057;-77
2023/08/13 01:05:38;;;;;;;13.25;3.55;;;19.50;99.90;;;;;;5033591;28;20384;-77
2023/08/13 01:08:25;;;;;;;10.68;3.20;;;19.50;99.90;;;;;;5034263;28;20065;-77
2023/08/13 01:11:15;;;;;;;9.93;3.70;;;19.50;99.90;;;;;;5034357;28;20474;-77
2023/08/13 01:13:52;;;;;;;10.82;3.75;;;19.50;99.90;;;;;;5032774;28;20104;-77
2023/08/13 01:16:20;;;;;;;14.55;3.97;;;19.40;99.90;;;;;;5033925;28;20056;-77
2023/08/13 01:18:46;;;;;;;17.15;4.05;;;19.40;99.90;;;;;;5033526;28;20030;-77
2023/08/13 01:21:12;;;;;;;12.38;3.40;;;19.40;99.90;;;;;;5034174;28;20041;-77
2023/08/13 01:23:38;;;;;;;16.95;4.10;;;19.30;99.90;;;;;;5033976;28;20021;-77
2023/08/13 01:26:17;;;;;;;14.45;3.53;;;19.30;99.90;;;;;;5033691;28;20103;-77
2023/08/13 01:28:48;;;;;;;11.60;3.58;;;19.30;99.90;;;;;;5032475;28;20467;-77
2023/08/13 01:31:25;;;;;;;10.82;3.42;;;19.30;99.90;;;;;;5033841;28;20079;-77
2023/08/13 01:33:52;;;;;;;10.68;3.53;;;19.30;99.90;;;;;;5033741;28;20021;-77
2023/08/13 01:36:19;;;;;;;14.75;4.28;;;19.20;99.90;;;;;;5033705;28;20087;-77
2023/08/13 01:38:46;;;;;;;12.95;3.88;;;19.20;99.90;;;;;;5032159;28;20497;-77
2023/08/13 01:41:12;;;;;;;14.40;3.63;;;19.20;99.90;;;;;;5034128;28;20029;-77
2023/08/13 01:43:38;;;;;;;11.13;3.33;;;19.20;99.90;;;;;;5033740;28;20485;-76
2023/08/13 01:46:03;;;;;;;9.35;3.65;;;19.20;99.90;;;;;;5033369;28;20489;-77
2023/08/13 01:48:29;;;;;;;14.43;3.80;;;19.20;99.90;;;;;;5033435;28;20025;-77
2023/08/13 01:50:55;;;;;;;12.18;3.28;;;19.10;99.90;;;;;;5033259;28;20040;-77
2023/08/13 01:53:21;;;;;;;13.15;3.88;;;19.10;99.90;;;;;;5033600;28;20025;-77
2023/08/13 01:55:46;;;;;;;13.70;3.80;;;19.10;99.90;;;;;;5033128;28;20033;-76
2023/08/13 01:58:12;;;;;;;11.68;3.78;;;19.00;99.90;;;;;;5032895;28;20394;-77
2023/08/13 02:00:38;;;;;;;9.95;3.22;;;19.00;99.90;;;;;;5033167;28;20044;-76
2023/08/13 02:03:04;;;;;;;11.40;3.13;;;19.00;99.90;;;;;;5033074;28;20060;-76
2023/08/13 02:05:29;;;;;;;10.45;3.35;;;18.90;99.90;;;;;;5033330;28;20029;-77
2023/08/13 02:07:56;;;;;;;9.93;3.65;;;18.90;99.90;;;;;;5033043;28;20032;-76
2023/08/13 02:10:22;;;;;;;13.80;3.65;;;18.70;99.90;;;;;;5033306;28;20389;-76
2023/08/13 02:12:47;;;;;;;9.02;3.50;;;18.70;99.90;;;;;;5032798;28;20509;-77
2023/08/13 02:15:13;;;;;;;6.95;2.95;;;18.70;99.90;;;;;;5033095;28;20139;-77
2023/08/13 02:17:39;;;;;;;11.77;3.50;;;18.60;99.90;;;;;;5047720;28;20021;-76
2023/08/13 02:20:05;;;;;;;9.95;4.18;;;18.60;99.90;;;;;;5032934;28;20028;-76
2023/08/13 02:22:31;;;;;;;14.05;3.75;;;18.60;99.90;;;;;;5032919;28;20025;-77
2023/08/13 02:24:57;;;;;;;19.10;3.90;;;18.70;99.90;;;;;;5032066;28;20087;-77
2023/08/13 02:27:23;;;;;;;7.78;3.80;;;18.60;99.90;;;;;;5032833;28;20029;-76
2023/08/13 02:29:48;;;;;;;8.25;4.03;;;18.70;99.90;;;;;;5032611;28;20025;-77
2023/08/13 02:32:14;;;;;;;10.88;4.00;;;18.60;99.90;;;;;;5032327;28;20470;-76
2023/08/13 02:34:47;;;;;;;7.65;3.58;;;18.60;99.90;;;;;;5032657;28;20022;-77
2023/08/13 02:37:12;;;;;;;;;;;18.60;99.90;;;;;;5032990;28;20030;-76
2023/08/13 02:39:38;;;;;;;14.52;4.32;;;18.60;99.90;;;;;;5031337;28;19909;-76
2023/08/13 02:42:04;;;;;;;9.73;3.50;;;18.50;99.90;;;;;;5032387;28;20042;-77
2023/08/13 02:44:30;;;;;;;13.13;4.10;;;18.50;99.90;;;;;;5031357;28;20457;-76
2023/08/13 02:46:56;;;;;;;9.70;3.95;;;18.50;99.90;;;;;;5031820;28;20049;-77
2023/08/13 02:49:21;;;;;;;9.73;3.70;;;18.40;99.90;;;;;;5032604;28;20026;-77
2023/08/13 02:51:47;;;;;;;10.32;3.03;;;18.40;99.90;;;;;;5030859;28;20125;-76
2023/08/13 02:54:13;;;;;;;12.77;3.45;;;18.40;99.90;;;;;;5032380;28;20021;-76
2023/08/13 02:56:41;;;;;;;12.30;4.35;;;18.40;99.90;;;;;;5032312;28;20533;-77
2023/08/13 02:59:06;;;;;;;13.73;4.55;;;18.40;99.90;;;;;;5032184;28;20049;-76
2023/08/13 03:01:32;;;;;;;16.33;4.22;;;18.40;99.90;;;;;;5032198;28;20072;-76
2023/08/13 03:04:00;;;;;;;7.30;3.22;;;18.40;99.90;;;;;;5032234;28;20024;-77
2023/08/13 03:06:26;;;;;;;10.07;3.55;;;18.40;99.90;;;;;;5032027;28;20026;-77
2023/08/13 03:08:52;;;;;;;9.25;3.20;;;18.40;99.90;;;;;;5032125;28;20032;-76
2023/08/13 03:11:18;;;;;;;10.20;3.95;;;18.40;99.90;;;;;;5032107;28;20041;-76
2023/08/13 03:13:44;;;;;;;9.63;3.90;;;18.30;99.90;;;;;;5047554;28;20112;-77
2023/08/13 03:16:10;;;;;;;16.17;3.97;;;18.20;99.90;;;;;;5031931;28;20030;-77
2023/08/13 03:18:35;;;;;;;11.35;3.80;;;18.20;99.90;;;;;;5031839;28;20393;-77
2023/08/13 03:21:01;;;;;;;12.20;4.07;;;18.20;99.90;;;;;;5032051;28;20029;-77
2023/08/13 03:23:27;;;;;;;10.65;3.75;;;18.20;99.90;;;;;;5032166;28;20053;-77
2023/08/13 03:25:53;;;;;;;7.93;3.95;;;18.20;99.90;;;;;;5031804;28;20025;-76
2023/08/13 03:28:19;;;;;;;12.75;4.28;;;18.20;99.90;;;;;;5031680;28;20367;-76
2023/08/13 03:30:45;;;;;;;11.25;3.72;;;18.20;99.90;;;;;;5031998;28;20032;-76
2023/08/13 03:33:10;;;;;;;13.00;3.60;;;18.20;99.90;;;;;;5032062;28;20029;-77
2023/08/13 03:35:40;;;;;;;12.00;3.63;;;18.10;99.90;;;;;;5033225;28;20032;-77
2023/08/13 03:38:06;;;;;;;15.50;3.85;;;18.10;99.90;;;;;;5035749;28;20060;-77
2023/08/13 03:40:32;;;;;;;14.18;3.92;;;17.90;99.90;;;;;;5035824;28;20064;-76
2023/08/13 03:42:57;;;;;;;12.88;4.07;;;17.90;99.90;;;;;;5035388;28;20037;-76
2023/08/13 03:45:23;;;;;;;11.45;3.92;;;18.00;99.90;;;;;;5035935;28;20029;-77
2023/08/13 03:47:49;;;;;;;17.95;4.65;;;18.00;99.90;;;;;;5035420;28;20026;-76
2023/08/13 03:50:15;;;;;;;9.00;3.45;;;18.00;99.90;;;;;;5035627;28;20098;-76
2023/08/13 03:52:40;;;;;;;14.40;4.82;;;18.00;99.90;;;;;;5034599;28;20099;-77
2023/08/13 03:55:06;;;;;;;17.38;4.40;;;18.00;99.90;;;;;;5034316;28;20120;-77
2023/08/13 03:57:32;;;;;;;8.48;4.07;;;17.90;99.90;;;;;;5035530;28;20433;-76
2023/08/13 03:59:58;;;;;;;14.45;5.07;;;18.00;99.90;;;;;;5035113;28;20025;-76
2023/08/13 04:02:25;;;;;;;12.25;3.72;;;18.00;99.90;;;;;;5035250;28;20034;-76
2023/08/13 04:04:51;;;;;;;11.38;3.63;;;18.00;99.90;;;;;;5035037;28;20022;-76
2023/08/13 04:07:16;;;;;;;16.30;3.92;;;18.00;99.90;;;;;;5035392;28;20036;-76
2023/08/13 04:09:42;;;;;;;10.52;5.07;;;18.00;99.90;;;;;;5033932;28;20117;-76
2023/08/13 04:12:08;;;;;;;15.98;5.65;;;18.00;99.90;;;;;;5035053;28;20068;-76
2023/08/13 04:14:33;;;;;;;11.48;4.45;;;17.90;99.90;;;;;;5035252;28;20025;-76
2023/08/13 04:16:59;;;;;;;10.98;3.97;;;17.90;99.90;;;;;;5035109;28;20025;-76
2023/08/13 04:19:25;;;;;;;14.07;4.40;;;17.90;99.90;;;;;;5033823;28;20017;-76
2023/08/13 04:21:51;;;;;;;12.50;4.70;;;17.90;99.90;;;;;;5035219;28;20102;-77
2023/08/13 04:24:17;;;;;;;12.68;4.10;;;18.00;99.90;;;;;;5035021;28;20433;-76
2023/08/13 04:26:42;;;;;;;7.38;3.75;;;17.90;99.90;;;;;;5034846;28;20076;-76
2023/08/13 04:29:08;;;;;;;12.25;4.28;;;17.90;99.90;;;;;;5034176;28;20513;-76
2023/08/13 04:31:34;;;;;;;12.82;4.05;;;17.90;99.90;;;;;;5034388;28;20033;-76
2023/08/13 04:34:00;;;;;;;12.55;3.88;;;17.90;99.90;;;;;;5019345;28;20101;-74
2023/08/13 04:36:26;;;;;;;14.25;4.22;;;17.90;99.90;;;;;;5014900;28;20025;-71
2023/08/13 04:38:51;;;;;;;11.65;4.13;;;17.90;99.90;;;;;;5014826;28;20022;-73
2023/08/13 04:41:17;;;;;;;12.32;4.60;;;17.90;99.90;;;;;;5034620;28;20115;-76
2023/08/13 04:43:43;;;;;;;13.00;4.20;;;17.90;99.90;;;;;;5033547;28;20037;-76
2023/08/13 04:46:09;;;;;;;8.77;4.07;;;17.90;99.90;;;;;;5034467;28;20029;-76
2023/08/13 04:48:45;;;;;;;11.98;3.88;;;17.80;99.90;;;;;;5049017;28;20049;-75
2023/08/13 04:51:12;;;;;;;11.60;4.90;;;17.90;99.90;;;;;;5034384;28;20246;-70
2023/08/13 04:53:38;;;;;;;11.98;4.32;;;17.90;99.90;;;;;;5034858;28;20022;-69
2023/08/13 04:56:06;;;;;;;14.77;4.40;;;18.00;99.90;;;;;;5034224;28;20033;-72
2023/08/13 04:58:33;;;;;;;12.27;4.10;;;18.00;99.90;;;;;;5034588;28;20100;-71
2023/08/13 05:00:59;;;;;;;12.10;3.97;;;18.00;99.90;;;;;;5033309;28;20049;-72
2023/08/13 05:03:25;;;;;;;18.73;4.65;;;18.00;99.90;;;;;;5033947;28;20053;-72
2023/08/13 05:05:50;;;;;;;14.63;4.40;;;18.00;99.90;;;;;;5034071;28;20033;-72
2023/08/13 05:08:17;;;;;;;15.02;4.55;;;18.10;99.90;;;;;;5034253;28;20096;-72
2023/08/13 05:10:42;;;;;;;11.38;4.70;;;18.10;99.90;;;;;;5034186;28;20087;-72
2023/08/13 05:13:08;;;;;;;10.52;4.15;;;18.10;99.90;;;;;;5034174;28;20437;-72
2023/08/13 05:15:33;;;;;;;12.30;4.00;;;18.00;99.90;;;;;;5034100;28;20536;-75
2023/08/13 05:17:59;;;;;;;9.57;4.18;;;18.10;99.90;;;;;;5032403;28;20104;-77
2023/08/13 05:20:25;;;;;;;9.23;3.83;;;18.10;99.90;;;;;;5033570;28;20117;-76
2023/08/13 05:22:51;;;;;;;13.55;4.00;;;18.10;99.90;;;;;;5034124;28;20026;-77
2023/08/13 05:25:17;;;;;;;9.88;3.78;;;18.10;99.90;;;;;;5031537;28;20091;-77
2023/08/13 05:27:43;;;;;;;10.98;4.05;;;18.10;99.90;;;;;;5034035;28;20017;-77
2023/08/13 05:30:09;;;;;;;13.68;3.47;;;18.10;99.90;;;;;;5032453;28;20051;-77
2023/08/13 05:32:35;;;;;;;9.95;3.97;;;18.10;99.90;;;;;;5033789;28;20032;-77
2023/08/13 05:35:01;;;;;;;15.65;4.15;;;18.10;99.90;;;;;;5033755;28;20026;-77
2023/08/13 05:37:27;;;;;;;12.95;3.45;;;18.10;99.90;;;;;;5032405;28;20076;-77
2023/08/13 05:39:52;;;;;;;11.98;4.35;;;18.10;99.90;;;;;;5033449;28;20060;-76
2023/08/13 05:42:19;;;;;;;8.20;3.47;;;18.10;99.90;;;;;;5033604;28;20040;-77
2023/08/13 05:44:45;;;;;;;11.73;3.75;;;18.10;99.90;;;;;;5033582;28;20531;-76
2023/08/13 05:47:11;;;;;;;11.75;3.78;;;18.10;99.90;;;;;;5033284;28;20108;-76
2023/08/13 05:49:36;;;;;;;12.90;4.10;;;18.20;99.90;;;;;;5033228;28;20029;-77
2023/08/13 05:52:02;;;;;;;17.15;4.15;;;18.20;99.90;;;;;;5033205;28;20517;-77
2023/08/13 05:54:28;;;;;;;14.77;4.65;;;18.30;99.90;;;;;;5033071;28;20025;-76
2023/08/13 05:56:54;;;;;;;11.27;3.90;;;18.30;99.90;;;;;;5032749;28;20526;-76
2023/08/13 05:59:20;;;;;;;13.13;3.70;;;18.30;99.90;;;;;;5033268;28;20032;-76
2023/08/13 06:01:46;;;;;;;13.32;4.05;;;18.40;99.90;;;;;;5032681;28;20501;-76
2023/08/13 06:04:11;;;;;;;14.38;4.63;;;18.40;99.90;;;;;;5032770;28;20033;-76
2023/08/13 06:06:37;;;;;;;10.55;3.75;;;18.40;99.90;;;;;;5031668;28;20022;-77
2023/08/13 06:09:03;;;;;;;12.13;3.55;;;18.40;99.90;;;;;;5032879;28;20044;-77
2023/08/13 06:11:29;;;;;;;15.13;3.97;;;18.50;99.90;;;;;;5032385;28;20040;-76
2023/08/13 06:13:55;;;;;;;9.60;3.08;;;18.50;99.90;;;;;;5032237;28;20014;-77
2023/08/13 06:16:21;;;;;;;10.10;3.60;;;18.60;99.90;;;;;;5032488;28;20048;-77
2023/08/13 06:18:46;;;;;;;11.38;4.10;;;18.60;99.90;;;;;;5026889;28;20331;-77
2023/08/13 06:21:12;;;;;;;11.82;3.92;;;18.60;99.90;;;;;;5032112;28;20029;-72
2023/08/13 06:23:38;;;;;;;9.30;3.25;;;18.70;99.90;;;;;;5032543;28;20555;-76
2023/08/13 06:26:05;;;;;;;15.10;4.07;;;18.70;99.90;;;;;;5030334;28;20072;-77
2023/08/13 06:28:30;;;;;;;7.40;3.22;;;18.80;99.90;;;;;;5032521;28;20021;-77
2023/08/13 06:30:56;;;;;;;11.85;3.38;;;18.80;99.90;;;;;;5032390;28;20508;-78
2023/08/13 06:33:22;;;;;;;12.13;3.30;;;18.90;99.90;;;;;;5032500;28;20104;-76
2023/08/13 06:35:48;;;;;;;11.02;3.83;;;19.00;99.90;;;;;;5023659;28;20036;-78
2023/08/13 06:38:14;;;;;;;13.13;3.60;;;19.00;99.90;;;;;;5028733;28;20038;-77
2023/08/13 06:40:40;;;;;;;10.75;3.53;;;19.00;99.90;;;;;;5030745;28;20029;-78
2023/08/13 06:43:06;;;;;;;9.63;3.17;;;19.10;99.90;;;;;;5030905;28;20045;-77
2023/08/13 06:45:32;;;;;;;14.48;3.53;;;19.10;99.90;;;;;;5030734;28;20110;-77
2023/08/13 06:47:58;;;;;;;8.05;2.78;;;19.20;99.90;;;;;;5011360;28;20105;-77
2023/08/13 06:50:25;;;;;;;8.32;2.67;;;19.20;99.90;;;;;;5012679;28;20032;-76
2023/08/13 06:52:51;;;;;;;9.48;2.80;;;19.20;99.90;;;;;;5011957;28;20034;-78
2023/08/13 06:55:17;;;;;;;10.65;2.78;;;19.30;99.90;;;;;;5011268;28;20029;-78
2023/08/13 06:57:42;;;;;;;14.48;3.15;;;19.40;99.90;;;;;;5012714;28;20034;-78
2023/08/13 07:00:10;;;;;;;11.90;3.10;;;19.50;99.90;;;;;;5012504;28;20037;-77
2023/08/13 07:02:37;;;;;;;10.82;3.10;;;19.60;99.90;;;;;;5012496;28;20018;-78
2023/08/13 07:05:04;;;;;;;10.43;3.17;;;19.60;99.90;;;;;;5012755;28;20045;-78
2023/08/13 07:07:30;;;;;;;12.32;2.83;;;19.70;99.90;;;;;;5012214;28;20079;-78
2023/08/13 07:09:55;;;;;;;8.07;3.35;;;19.80;99.90;;;;;;5012065;28;20104;-78
2023/08/13 07:12:21;;;;;;;8.30;2.63;;;19.80;99.90;;;;;;5012358;28;20506;-78
2023/08/13 07:14:47;;;;;;;10.32;3.15;;;19.80;99.90;;;;;;5012316;28;20029;-77
2023/08/13 07:17:13;;;;;;;12.63;3.30;;;19.90;99.90;;;;;;5011176;28;20041;-78
2023/08/13 07:19:38;;;;;;;7.05;2.38;;;19.90;99.90;;;;;;5012302;28;20026;-79
2023/08/13 07:22:04;;;;;;;12.18;2.97;;;20.00;99.90;;;;;;5012555;28;20060;-79
2023/08/13 07:24:30;;;;;;;10.38;3.80;;;20.00;99.90;;;;;;5012283;28;20061;-79
2023/08/13 07:26:55;;;;;;;6.60;2.92;;;20.10;99.90;;;;;;5012373;28;20037;-78
2023/08/13 07:29:21;;;;;;;9.20;2.58;;;20.30;99.90;;;;;;5012296;28;20053;-79
2023/08/13 07:31:47;;;;;;;11.32;3.10;;;20.30;99.90;;;;;;5010975;28;20037;-79
2023/08/13 07:34:13;;;;;;;7.05;2.42;;;20.40;99.90;;;;;;5012490;28;20022;-78
2023/08/13 07:36:38;;;;;;;10.23;2.65;;;20.40;99.90;;;;;;5012018;28;20033;-78
2023/08/13 07:39:05;;;;;;;8.00;2.28;;;20.50;99.90;;;;;;5012103;28;20025;-79
2023/08/13 07:41:30;;;;;;;9.00;2.38;;;20.50;99.90;;;;;;5011009;28;20368;-79
2023/08/13 07:43:56;;;;;;;9.15;2.10;;;20.60;99.90;;;;;;5012082;28;20545;-79
2023/08/13 07:46:22;;;;;;;9.82;2.83;;;20.70;99.90;;;;;;5012303;28;20117;-80
2023/08/13 07:48:48;;;;;;;8.73;2.63;;;20.80;99.90;;;;;;5012040;28;20046;-79
2023/08/13 07:51:15;;;;;;;5.88;2.30;;;20.80;99.90;;;;;;5011977;28;20041;-78
2023/08/13 07:53:40;;;;;;;7.50;2.95;;;20.90;99.90;;;;;;5012058;28;20553;-79
2023/08/13 07:56:06;;;;;;;6.32;2.53;;;20.90;99.90;;;;;;5012187;28;20026;-79
2023/08/13 07:58:32;;;;;;;6.70;2.47;;;21.00;99.90;;;;;;5011938;28;20044;-77
2023/08/13 08:00:57;;;;;;;9.95;2.78;;;21.10;99.90;;;;;;5012033;28;20034;-79
2023/08/13 08:03:24;;;;;;;6.50;2.83;;;21.10;99.90;;;;;;5012085;28;20037;-78
2023/08/13 08:05:51;;;;;;;8.60;2.35;;;21.20;99.90;;;;;;5011761;28;20041;-79
2023/08/13 08:08:17;;;;;;;8.40;2.75;;;21.20;99.90;;;;;;5011903;28;20018;-79
2023/08/13 08:10:43;;;;;;;8.73;3.00;;;21.30;99.90;;;;;;5011941;28;20077;-78
2023/08/13 08:13:08;;;;;;;11.30;3.53;;;21.40;99.90;;;;;;5012009;28;20030;-79
2023/08/13 08:15:34;;;;;;;9.18;3.45;;;21.50;99.90;;;;;;5010438;28;20038;-76
2023/08/13 08:18:00;;;;;;;12.27;3.08;;;21.40;99.90;;;;;;5011701;28;20037;-78
2023/08/13 08:20:26;;;;;;;8.45;2.97;;;21.40;99.90;;;;;;5011613;28;20032;-78
2023/08/13 08:22:52;;;;;;;13.55;3.38;;;21.50;99.90;;;;;;5013294;28;20032;-78
2023/08/13 08:25:19;;;;;;;7.97;2.78;;;21.50;99.90;;;;;;5014032;28;20022;-77
2023/08/13 08:27:45;;;;;;;6.70;3.03;;;21.60;99.90;;;;;;5015333;28;20032;-78
2023/08/13 08:30:11;;;;;;;11.13;3.30;;;21.50;99.90;;;;;;5015131;28;20022;-77
2023/08/13 08:32:37;;;;;;;6.55;2.90;;;21.50;99.90;;;;;;5014013;28;20034;-78
2023/08/13 08:35:03;;;;;;;10.73;3.22;;;21.50;99.90;;;;;;5014888;28;20156;-78
2023/08/13 08:37:31;;;;;;;13.98;3.13;;;21.60;99.90;;;;;;5015179;28;20030;-80
2023/08/13 08:39:58;;;;;;;10.23;3.00;;;21.60;99.90;;;;;;5015136;28;20039;-79
2023/08/13 08:42:25;;;;;;;8.77;3.13;;;21.70;99.90;;;;;;5015298;28;20030;-78
2023/08/13 08:44:51;;;;;;;15.23;3.85;;;21.80;99.90;;;;;;5014802;28;20021;-79
2023/08/13 08:47:18;;;;;;;10.02;2.45;;;21.60;99.90;;;;;;5015014;28;20038;-79
2023/08/13 08:49:46;;;;;;;10.95;3.15;;;21.70;99.90;;;;;;5014761;28;20068;-78
2023/08/13 08:52:12;;;;;;;9.40;3.05;;;21.90;99.90;;;;;;5014900;28;20041;-78
2023/08/13 08:54:42;;;;;;;8.48;2.53;;;22.00;99.90;;;;;;5013581;28;20055;-79
2023/08/13 08:57:07;;;;;;;10.70;3.33;;;22.00;99.90;;;;;;5014900;28;20030;-79
2023/08/13 08:59:34;;;;;;;12.50;2.97;;;22.10;99.90;;;;;;5013417;28;20471;-79
2023/08/13 09:02:00;;;;;;;9.90;2.88;;;22.20;99.90;;;;;;5014413;28;20034;-79
2023/08/13 09:04:25;;;;;;;5.25;2.20;;;22.30;99.90;;;;;;5014597;28;20067;-78
2023/08/13 09:06:55;;;;;;;8.35;3.08;;;22.40;99.90;;;;;;5014440;28;20113;-79
2023/08/13 09:09:22;;;;;;;7.47;2.85;;;22.40;99.90;;;;;;5013186;28;20026;-78
2023/08/13 09:11:48;;;;;;;8.95;2.88;;;22.50;99.90;;;;;;5014302;28;20038;-81
2023/08/13 09:14:14;;;;;;;9.50;2.70;;;22.50;99.90;;;;;;5012950;28;20022;-78
2023/08/13 09:16:51;;;;;;;12.77;3.40;;;22.50;99.90;;;;;;5014079;28;20040;-79
2023/08/13 09:19:18;;;;;;;7.68;3.08;;;22.40;99.90;;;;;;5013161;28;20033;-78
2023/08/13 09:21:56;;;;;;;8.85;3.00;;;22.40;99.90;;;;;;5014265;28;20509;-79
2023/08/13 09:24:37;;;;;;;10.57;2.90;;;22.40;99.90;;;;;;5014471;28;20452;-80
2023/08/13 09:27:04;;;;;;;5.68;2.45;;;22.40;99.90;;;;;;5012803;28;20068;-79
2023/08/13 09:29:31;;;;;;;9.35;2.75;;;22.60;99.90;;;;;;5014416;28;20026;-79
2023/08/13 09:31:58;;;;;;;12.25;2.92;;;22.60;99.90;;;;;;5013623;28;20497;-79
2023/08/13 09:34:25;;;;;;;8.93;2.88;;;22.50;99.90;;;;;;5013694;28;20018;-79
2023/08/13 09:36:56;;;;;;;9.18;3.33;;;22.70;99.90;;;;;;5014013;28;20092;-79
2023/08/13 09:39:26;;;;;;;9.23;3.10;;;22.70;99.90;;;;;;5013975;28;20037;-79
2023/08/13 09:41:52;;;;;;;10.38;2.70;;;22.90;99.90;;;;;;5014012;28;20033;-79
2023/08/13 09:44:20;;;;;;;10.05;3.30;;;23.00;99.90;;;;;;5013943;28;20036;-79
2023/08/13 09:46:53;;;;;;;9.68;2.72;;;23.10;99.90;;;;;;5013539;28;20048;-79
2023/08/13 09:49:20;;;;;;;11.15;3.55;;;23.10;99.90;;;;;;5014154;28;20026;-80
2023/08/13 09:51:49;;;;;;;11.40;2.90;;;23.10;99.90;;;;;;5012157;28;20473;-76
2023/08/13 09:54:34;;;;;;;11.23;3.67;;;23.20;99.90;;;;;;5013922;28;20391;-79
2023/08/13 09:57:03;;;;;;;9.45;2.92;;;23.10;99.90;;;;;;5013530;28;20065;-79
2023/08/13 09:59:33;;;;;;;10.55;3.97;;;23.20;99.90;;;;;;5013694;28;20079;-79
2023/08/13 10:01:59;;;;;;;9.68;3.03;;;23.30;99.90;;;;;;5011854;28;20026;-79
2023/08/13 10:04:26;;;;;;;13.10;3.05;;;23.20;99.90;;;;;;5013481;28;20033;-78
2023/08/13 10:06:55;;;;;;;13.85;3.10;;;23.30;99.90;;;;;;5013384;28;20083;-79
2023/08/13 10:09:21;;;;;;;8.25;3.25;;;23.40;99.90;;;;;;5013431;28;20033;-79
2023/08/13 10:11:47;;;;;;;9.98;2.85;;;23.50;99.90;;;;;;5013362;28;20040;-78
2023/08/13 10:14:13;;;;;;;6.93;2.90;;;23.50;99.90;;;;;;5013435;28;20034;-78
2023/08/13 10:16:40;;;;;;;9.82;2.83;;;23.40;99.90;;;;;;5013081;28;20097;-80
2023/08/13 10:19:08;;;;;;;12.57;3.35;;;23.50;99.90;;;;;;5011858;28;20033;-78
2023/08/13 10:21:38;;;;;;;10.68;3.17;;;23.60;99.90;;;;;;5013272;28;20115;-79
2023/08/13 10:24:10;;;;;;;9.73;2.92;;;23.80;99.90;;;;;;5013004;28;20029;-80
2023/08/13 10:26:35;;;;;;;9.82;3.25;;;24.00;99.90;;;;;;5013118;28;20052;-78
2023/08/13 10:29:17;;;;;;;10.60;2.85;;;24.00;99.90;;;;;;5012801;28;20479;-79
2023/08/13 10:31:55;;;;;;;11.33;3.17;;;24.00;99.90;;;;;;5013182;28;20135;-78
2023/08/13 10:34:41;;;;;;;10.25;2.97;;;24.10;99.90;;;;;;5013017;28;20022;-79
2023/08/13 10:37:18;;;;;;;8.10;2.83;;;24.10;99.90;;;;;;5012896;28;20045;-78
2023/08/13 10:39:45;;;;;;;7.10;2.88;;;23.90;99.90;;;;;;5012811;28;20049;-79
2023/08/13 10:42:26;;;;;;;10.48;3.17;;;24.00;99.90;;;;;;5012757;28;20061;-80
2023/08/13 10:45:16;;;;;;;10.60;3.30;;;23.90;99.90;;;;;;5011675;28;20030;-78
2023/08/13 10:47:48;;;;;;;8.02;2.70;;;23.90;99.90;;;;;;5012396;28;20049;-79
2023/08/13 10:50:16;;;;;;;4.03;2.47;;;24.10;99.90;;;;;;5012966;28;20103;-79
2023/08/13 10:52:44;;;;;;;7.55;2.63;;;24.40;99.90;;;;;;5012701;28;20471;-78
2023/08/13 10:55:10;;;;;;;7.72;2.70;;;24.50;99.90;;;;;;5012770;28;20105;-79
2023/08/13 10:57:38;;;;;;;8.48;3.33;;;24.30;99.90;;;;;;5012607;28;20026;-79
2023/08/13 11:00:04;;;;;;;8.05;3.03;;;24.20;99.90;;;;;;5012097;28;20034;-80
2023/08/13 11:02:30;;;;;;;9.60;3.47;;;24.20;99.90;;;;;;5011194;28;20478;-80
2023/08/13 11:04:57;;;;;;;11.70;4.00;;;24.00;99.90;;;;;;5012454;28;20108;-80
2023/08/13 11:07:23;;;;;;;7.68;3.20;;;24.10;99.90;;;;;;5031640;28;20117;-79
2023/08/13 11:09:49;;;;;;;7.38;2.97;;;24.60;99.90;;;;;;5031933;28;20075;-77
2023/08/13 11:12:15;;;;;;;10.15;3.20;;;25.00;99.90;;;;;;5031468;28;20042;-79
2023/08/13 11:14:41;;;;;;;7.50;3.03;;;24.80;99.90;;;;;;5047076;28;20052;-79
2023/08/13 11:17:07;;;;;;;6.90;2.80;;;24.80;99.90;;;;;;5032028;28;20041;-80
2023/08/13 11:19:33;;;;;;;12.32;3.15;;;24.80;99.90;;;;;;5032025;28;20033;-79
2023/08/13 11:22:00;;;;;;;8.18;2.88;;;24.80;99.90;;;;;;5030631;28;20420;-80
2023/08/13 11:24:26;;;;;;;7.90;2.78;;;24.90;99.90;;;;;;5018206;28;20489;-80
2023/08/13 11:26:52;;;;;;;8.32;2.95;;;24.80;99.90;;;;;;5010905;28;20026;-80
2023/08/13 11:29:20;;;;;;;10.32;2.75;;;24.90;99.90;;;;;;5012078;28;20022;-79
2023/08/13 11:31:47;;;;;;;8.60;3.20;;;24.90;99.90;;;;;;5012189;28;20038;-81
2023/08/13 11:34:15;;;;;;;6.53;2.72;;;25.00;99.90;;;;;;5011917;28;20549;-79
2023/08/13 11:36:43;;;;;;;7.88;3.15;;;24.90;99.90;;;;;;5012119;28;20022;-81
2023/08/13 11:39:08;;;;;;;8.30;2.92;;;24.90;99.90;;;;;;5011975;28;20030;-79
2023/08/13 11:41:34;;;;;;;7.05;2.90;;;24.80;99.90;;;;;;5011982;28;20101;-79
2023/08/13 11:44:01;;;;;;;8.02;2.55;;;24.80;99.90;;;;;;5011797;28;20030;-80
2023/08/13 11:46:27;;;;;;;12.15;3.38;;;24.80;99.90;;;;;;5020237;28;20429;-79
2023/08/13 11:48:54;;;;;;;6.80;2.80;;;24.80;99.90;;;;;;5031526;28;20030;-80
2023/08/13 11:51:24;;;;;;;10.02;3.35;;;24.80;99.90;;;;;;5031725;28;20030;-79
2023/08/13 11:53:50;;;;;;;8.85;3.35;;;24.70;99.90;;;;;;5031522;28;20108;-79
2023/08/13 11:56:18;;;;;;;9.10;3.45;;;25.00;99.90;;;;;;5031818;28;20532;-80
2023/08/13 11:58:44;;;;;;;13.70;3.22;;;25.00;99.90;;;;;;5035587;28;20048;-79
2023/08/13 12:01:11;;;;;;;13.07;3.35;;;24.90;99.90;;;;;;5020483;28;20360;-80
2023/08/13 12:03:39;;;;;;;6.45;2.90;;;24.90;99.90;;;;;;5016125;28;20056;-79
2023/08/13 12:06:08;;;;;;;8.80;3.58;;;24.90;99.90;;;;;;5015515;28;20110;-79
2023/08/13 12:08:34;;;;;;;6.38;3.05;;;24.80;99.90;;;;;;5015327;28;20034;-80
2023/08/13 12:11:00;;;;;;;10.65;3.42;;;24.80;99.90;;;;;;5014080;28;20060;-81
2023/08/13 12:13:28;;;;;;;10.77;3.15;;;24.70;99.90;;;;;;5047450;28;20447;-80
2023/08/13 12:15:54;;;;;;;9.05;2.88;;;24.50;99.90;;;;;;5030666;28;20414;-81
2023/08/13 12:18:20;;;;;;;7.65;3.10;;;24.70;99.90;;;;;;5024198;28;20033;-80
2023/08/13 12:20:46;;;;;;;9.02;3.10;;;24.80;99.90;;;;;;5028863;28;20044;-80
2023/08/13 12:23:11;;;;;;;10.38;3.00;;;25.10;99.90;;;;;;5035119;28;20379;-80
2023/08/13 12:25:37;;;;;;;6.63;2.58;;;25.20;99.90;;;;;;5034736;28;20036;-80
2023/08/13 12:28:05;;;;;;;8.88;2.72;;;25.40;99.90;;;;;;5034861;28;20029;-79
2023/08/13 12:30:30;;;;;;;5.82;2.67;;;25.80;99.90;;;;;;5034756;28;20157;-80
2023/08/13 12:32:56;;;;;;;9.40;2.42;;;26.10;99.90;;;;;;5035000;28;20124;-80
2023/08/13 12:35:22;;;;;;;7.53;2.97;;;26.10;99.90;;;;;;5050025;28;20014;-80
2023/08/13 12:37:48;;;;;;;8.95;2.75;;;26.20;99.90;;;;;;5034866;28;20034;-80
2023/08/13 12:40:15;;;;;;;6.20;2.28;;;26.30;99.90;;;;;;5034366;28;20037;-81